Time;durP1;ratioP1;P1;durP2;ratioP2;P2;SDS_P1;SDS_P2;PMS_P1;PMS_P2;Temp;Humidity;BMP_temperature;BMP_pressure;BME280_temperature;BME280_humidity;BME280_pressure;Samples;Min_cycle;Max_cycle;Signal;HPM_P1;HPM_P2
2022/05/15 00:00:56;;;;;;;22.73;5.43;;;;;;;;;;5029904;28;20231;-62
2022/05/15 00:03:22;;;;;;;22.27;5.40;;;;;;;;;;5034030;28;20220;-62
2022/05/15 00:05:52;;;;;;;24.75;5.57;;;;;;;;;;5034106;28;20204;-62
2022/05/15 00:08:17;;;;;;;24.33;5.40;;;;;;;;;;5033316;28;20220;-62
2022/05/15 00:10:44;;;;;;;22.38;5.55;;;;;;;;;;5033789;28;20208;-62
2022/05/15 00:13:09;;;;;;;24.58;5.82;;;;;;;;;;5047651;28;20606;-62
2022/05/15 00:15:34;;;;;;;22.90;5.70;;;;;;;;;;5027070;28;20208;-63
2022/05/15 00:18:00;;;;;;;25.73;5.75;;;;;;;;;;5034093;28;20570;-62
2022/05/15 00:20:25;;;;;;;21.13;5.13;;;;;;;;;;5048062;28;20258;-62
2022/05/15 00:22:51;;;;;;;23.48;5.53;;;;;;;;;;5040545;28;20206;-62
2022/05/15 00:25:16;;;;;;;23.55;5.60;;;;;;;;;;5033998;28;20215;-62
2022/05/15 00:27:42;;;;;;;22.50;5.85;;;;;;;;;;5048256;28;20214;-62
2022/05/15 00:30:07;;;;;;;23.02;5.38;;;;;;;;;;5041504;28;20227;-62
2022/05/15 00:32:32;;;;;;;25.58;5.70;;;;;;;;;;5028306;28;20212;-62
2022/05/15 00:34:58;;;;;;;22.95;6.03;;;;;;;;;;5013104;28;20663;-62
2022/05/15 00:37:23;;;;;;;23.38;5.05;;;;;;;;;;5013195;28;20208;-62
2022/05/15 00:39:48;;;;;;;22.95;5.82;;;;;;;;;;5013372;28;20232;-62
2022/05/15 00:42:14;;;;;;;21.70;5.13;;;;;;;;;;5012033;28;20212;-63
2022/05/15 00:44:39;;;;;;;24.13;5.38;;;;;;;;;;5013546;28;20683;-62
2022/05/15 00:47:05;;;;;;;24.08;5.82;;;;;;;;;;5015368;28;20212;-62
2022/05/15 00:49:30;;;;;;;21.83;5.55;;;;;;;;;;5045008;28;20223;-63
2022/05/15 00:51:57;;;;;;;27.27;6.78;;;;;;;;;;5053147;28;20544;-62
2022/05/15 00:54:25;;;;;;;25.75;5.47;;;;;;;;;;5052401;28;20218;-63
2022/05/15 00:56:53;;;;;;;24.55;5.88;;;;;;;;;;5034401;28;20210;-63
2022/05/15 00:59:19;;;;;;;22.15;5.43;;;;;;;;;;5052108;28;20293;-62
2022/05/15 01:01:44;;;;;;;22.80;5.35;;;;;;;;;;5035461;28;20249;-62
2022/05/15 01:04:09;;;;;;;25.13;5.72;;;;;;;;;;5034143;28;20214;-62
2022/05/15 01:06:36;;;;;;;26.40;6.32;;;;;;;;;;5052740;28;20215;-62
2022/05/15 01:09:02;;;;;;;22.65;5.10;;;;;;;;;;5034774;28;20301;-62
2022/05/15 01:11:27;;;;;;;25.00;5.75;;;;;;;;;;5034085;28;20679;-62
2022/05/15 01:13:53;;;;;;;23.42;5.13;;;;;;;;;;5052720;28;20616;-62
2022/05/15 01:16:20;;;;;;;27.67;5.40;;;;;;;;;;5026569;28;20246;-62
2022/05/15 01:18:47;;;;;;;23.65;5.55;;;;;;;;;;5052807;28;20203;-62
2022/05/15 01:21:21;;;;;;;25.65;5.72;;;;;;;;;;5052107;28;20610;-62
2022/05/15 01:23:46;;;;;;;21.17;5.55;;;;;;;;;;5051798;28;20213;-62
2022/05/15 01:26:11;;;;;;;21.50;5.53;;;;;;;;;;5051774;28;20207;-62
2022/05/15 01:28:37;;;;;;;23.42;5.20;;;;;;;;;;5052088;28;20231;-62
2022/05/15 01:31:02;;;;;;;24.58;5.65;;;;;;;;;;5051194;28;20211;-62
2022/05/15 01:33:27;;;;;;;29.63;7.22;;;;;;;;;;5052722;28;20219;-62
2022/05/15 01:35:53;;;;;;;23.85;5.40;;;;;;;;;;5051371;28;20207;-62
2022/05/15 01:38:18;;;;;;;24.20;5.97;;;;;;;;;;5050878;28;20717;-62
2022/05/15 01:40:44;;;;;;;25.55;5.72;;;;;;;;;;5052158;28;20566;-63
2022/05/15 01:43:09;;;;;;;29.73;6.25;;;;;;;;;;5051529;28;20356;-62
2022/05/15 01:45:34;;;;;;;27.20;5.70;;;;;;;;;;5051548;28;20286;-63
2022/05/15 01:48:00;;;;;;;27.10;5.82;;;;;;;;;;5042510;28;20295;-63
2022/05/15 01:50:25;;;;;;;19.42;5.20;;;;;;;;;;5031334;28;20730;-62
2022/05/15 01:52:50;;;;;;;28.30;6.10;;;;;;;;;;5031356;28;20216;-62
2022/05/15 01:55:15;;;;;;;26.85;6.07;;;;;;;;;;5031461;28;20208;-62
2022/05/15 01:57:41;;;;;;;22.92;5.47;;;;;;;;;;5031887;28;20574;-62
2022/05/15 02:00:07;;;;;;;22.60;4.95;;;;;;;;;;5030467;28;20229;-62
2022/05/15 02:02:32;;;;;;;24.65;5.68;;;;;;;;;;5032361;28;20211;-62
2022/05/15 02:04:58;;;;;;;23.77;5.63;;;;;;;;;;5031960;28;20215;-62
2022/05/15 02:07:23;;;;;;;22.35;5.28;;;;;;;;;;5030710;28;20213;-62
2022/05/15 02:09:48;;;;;;;24.80;5.82;;;;;;;;;;5031533;28;20356;-62
2022/05/15 02:12:13;;;;;;;20.63;5.75;;;;;;;;;;5031255;28;20195;-62
2022/05/15 02:14:39;;;;;;;20.70;5.05;;;;;;;;;;5032795;28;20212;-62
2022/05/15 02:17:04;;;;;;;22.55;5.50;;;;;;;;;;5036595;28;20239;-62
2022/05/15 02:19:29;;;;;;;25.05;5.65;;;;;;;;;;5031204;28;20215;-62
2022/05/15 02:21:54;;;;;;;23.65;5.78;;;;;;;;;;5031494;28;20697;-62
2022/05/15 02:24:20;;;;;;;26.45;5.70;;;;;;;;;;5030939;28;20227;-62
2022/05/15 02:26:45;;;;;;;22.05;5.32;;;;;;;;;;5030560;28;20295;-62
2022/05/15 02:29:10;;;;;;;19.08;5.40;;;;;;;;;;5030811;28;20690;-62
2022/05/15 02:31:36;;;;;;;27.10;5.55;;;;;;;;;;5031583;28;20615;-62
2022/05/15 02:34:01;;;;;;;26.85;6.45;;;;;;;;;;5048032;28;20215;-61
2022/05/15 02:36:27;;;;;;;24.08;5.90;;;;;;;;;;5051057;28;20211;-62
2022/05/15 02:38:52;;;;;;;26.63;6.13;;;;;;;;;;5051141;28;20210;-62
2022/05/15 02:41:17;;;;;;;22.05;4.90;;;;;;;;;;5049717;28;20743;-63
2022/05/15 02:43:42;;;;;;;25.48;6.25;;;;;;;;;;5051224;28;20210;-63
2022/05/15 02:46:08;;;;;;;26.10;6.15;;;;;;;;;;5050639;28;20282;-62
2022/05/15 02:51:17;;;;;;;29.80;5.68;;;;;;;;;;5030773;28;20358;-62
2022/05/15 02:53:43;;;;;;;20.33;5.13;;;;;;;;;;5031231;28;20222;-62
2022/05/15 02:56:09;;;;;;;20.83;5.38;;;;;;;;;;5030046;28;20215;-61
2022/05/15 02:58:34;;;;;;;22.60;5.68;;;;;;;;;;5031205;28;20663;-62
2022/05/15 03:01:00;;;;;;;24.20;5.28;;;;;;;;;;5030846;28;20230;-62
2022/05/15 03:03:25;;;;;;;21.05;5.20;;;;;;;;;;5030341;28;20290;-62
2022/05/15 03:05:50;;;;;;;23.48;5.30;;;;;;;;;;5030949;28;20227;-62
2022/05/15 03:08:16;;;;;;;26.02;6.00;;;;;;;;;;5030642;28;20215;-62
2022/05/15 03:10:41;;;;;;;22.95;5.43;;;;;;;;;;5029951;28;20215;-62
2022/05/15 03:13:06;;;;;;;28.15;6.07;;;;;;;;;;5030816;28;20203;-61
2022/05/15 03:15:32;;;;;;;25.10;5.35;;;;;;;;;;5037932;28;20548;-62
2022/05/15 03:17:57;;;;;;;21.30;5.20;;;;;;;;;;5030333;28;20212;-62
2022/05/15 03:20:27;;;;;;;23.70;5.28;;;;;;;;;;5030428;28;20235;-62
2022/05/15 03:22:52;;;;;;;20.90;5.55;;;;;;;;;;5030083;28;20218;-62
2022/05/15 03:25:17;;;;;;;22.17;5.13;;;;;;;;;;5030355;28;20298;-62
2022/05/15 03:27:42;;;;;;;22.90;5.70;;;;;;;;;;5031032;28;20671;-62
2022/05/15 03:30:08;;;;;;;26.10;6.35;;;;;;;;;;5029584;28;20224;-61
2022/05/15 03:32:33;;;;;;;23.85;5.75;;;;;;;;;;5036627;28;20207;-62
2022/05/15 03:34:58;;;;;;;18.52;5.30;;;;;;;;;;5050791;28;20206;-62
2022/05/15 03:37:24;;;;;;;24.48;5.60;;;;;;;;;;5049296;28;20211;-62
2022/05/15 03:39:49;;;;;;;21.40;5.07;;;;;;;;;;5050634;28;20207;-62
2022/05/15 03:42:14;;;;;;;27.02;5.43;;;;;;;;;;5050495;28;20238;-62
2022/05/15 03:44:39;;;;;;;20.85;5.47;;;;;;;;;;5050075;28;20199;-62
2022/05/15 03:47:05;;;;;;;20.55;5.55;;;;;;;;;;5048060;28;20298;-62
2022/05/15 03:49:30;;;;;;;30.05;6.13;;;;;;;;;;5030583;28;20215;-62
2022/05/15 03:51:55;;;;;;;22.38;5.50;;;;;;;;;;5029921;28;20210;-62
2022/05/15 03:54:21;;;;;;;22.88;5.40;;;;;;;;;;5030226;28;20299;-62
2022/05/15 03:56:52;;;;;;;25.13;5.47;;;;;;;;;;5030686;28;20575;-62
2022/05/15 03:59:19;;;;;;;22.08;5.60;;;;;;;;;;5031542;28;20246;-62
2022/05/15 04:01:44;;;;;;;20.70;5.32;;;;;;;;;;5034064;28;20219;-62
2022/05/15 04:04:09;;;;;;;25.30;6.05;;;;;;;;;;5033855;28;20207;-62
2022/05/15 04:06:35;;;;;;;21.88;5.75;;;;;;;;;;5033417;28;20290;-62
2022/05/15 04:09:00;;;;;;;23.25;5.90;;;;;;;;;;5033834;28;20610;-62
2022/05/15 04:11:25;;;;;;;26.77;5.70;;;;;;;;;;5033581;28;20219;-62
2022/05/15 04:13:51;;;;;;;24.48;6.18;;;;;;;;;;5033647;28;20226;-62
2022/05/15 04:16:16;;;;;;;24.33;5.75;;;;;;;;;;5040440;28;20659;-62
2022/05/15 04:18:41;;;;;;;19.70;5.22;;;;;;;;;;5033718;28;20295;-62
2022/05/15 04:21:06;;;;;;;20.25;5.90;;;;;;;;;;5032696;28;20387;-62
2022/05/15 04:23:31;;;;;;;24.05;5.68;;;;;;;;;;5033798;28;20611;-62
2022/05/15 04:25:57;;;;;;;20.02;5.15;;;;;;;;;;5033671;28;20211;-62
2022/05/15 04:28:22;;;;;;;23.65;5.57;;;;;;;;;;5032603;28;20215;-62
2022/05/15 04:30:47;;;;;;;20.20;5.15;;;;;;;;;;5032449;28;20228;-62
2022/05/15 04:33:13;;;;;;;21.08;5.53;;;;;;;;;;5043327;28;20207;-62
2022/05/15 04:35:38;;;;;;;19.67;5.38;;;;;;;;;;5053442;28;20211;-62
2022/05/15 04:38:04;;;;;;;19.67;5.20;;;;;;;;;;5052833;28;20268;-61
2022/05/15 04:40:29;;;;;;;24.83;5.60;;;;;;;;;;5052344;28;20753;-62
2022/05/15 04:42:54;;;;;;;16.20;4.85;;;;;;;;;;5053638;28;20575;-62
2022/05/15 04:45:19;;;;;;;19.35;5.45;;;;;;;;;;5053204;28;21174;-62
2022/05/15 04:47:45;;;;;;;23.58;6.00;;;;;;;;;;5044753;28;20350;-62
2022/05/15 04:50:10;;;;;;;21.70;5.82;;;;;;;;;;5032641;28;20566;-62
2022/05/15 04:52:35;;;;;;;22.63;5.43;;;;;;;;;;5033329;28;20203;-62
2022/05/15 04:55:01;;;;;;;20.25;5.10;;;;;;;;;;5031777;28;20215;-61
2022/05/15 04:57:26;;;;;;;25.08;5.93;;;;;;;;;;5033264;28;20568;-62
2022/05/15 04:59:51;;;;;;;20.75;5.25;;;;;;;;;;5033141;28;20228;-62
2022/05/15 05:02:16;;;;;;;19.15;5.05;;;;;;;;;;5031583;28;20215;-62
2022/05/15 05:04:42;;;;;;;18.42;4.55;;;;;;;;;;5033105;28;20208;-62
2022/05/15 05:07:08;;;;;;;22.88;5.30;;;;;;;;;;5032290;28;20216;-62
2022/05/15 05:09:33;;;;;;;22.40;5.82;;;;;;;;;;5031174;28;20279;-63
2022/05/15 05:11:59;;;;;;;19.92;5.78;;;;;;;;;;5032315;28;20576;-63
2022/05/15 05:14:24;;;;;;;17.52;5.53;;;;;;;;;;5032560;28;20211;-62
2022/05/15 05:16:49;;;;;;;22.13;5.70;;;;;;;;;;5039258;28;20213;-62
2022/05/15 05:19:14;;;;;;;21.50;4.93;;;;;;;;;;5032045;28;20619;-62
2022/05/15 05:21:40;;;;;;;22.17;5.53;;;;;;;;;;5032600;28;20218;-62
2022/05/15 05:24:05;;;;;;;21.15;5.97;;;;;;;;;;5031211;28;20212;-62
2022/05/15 05:26:30;;;;;;;20.90;6.13;;;;;;;;;;5032710;28;20295;-62
2022/05/15 05:28:55;;;;;;;19.42;5.32;;;;;;;;;;5032556;28;20321;-62
2022/05/15 05:31:21;;;;;;;19.60;6.22;;;;;;;;;;5031704;28;20219;-62
2022/05/15 05:33:46;;;;;;;20.90;5.53;;;;;;;;;;5048044;28;20226;-62
2022/05/15 05:36:11;;;;;;;17.90;5.20;;;;;;;;;;5051865;28;20272;-63
2022/05/15 05:38:36;;;;;;;19.20;5.40;;;;;;;;;;5051285;28;20211;-62
2022/05/15 05:41:02;;;;;;;19.15;5.07;;;;;;;;;;5051532;28;20758;-62
2022/05/15 05:43:27;;;;;;;15.45;5.18;;;;;;;;;;5033794;28;20199;-62
2022/05/15 05:45:52;;;;;;;21.05;5.35;;;;;;;;;;5052488;28;20212;-63
2022/05/15 05:48:18;;;;;;;20.27;5.45;;;;;;;;;;5039190;28;20242;-63
2022/05/15 05:50:43;;;;;;;19.08;5.72;;;;;;;;;;5031345;28;20231;-63
2022/05/15 05:53:09;;;;;;;23.52;5.35;;;;;;;;;;5031438;28;20207;-62
2022/05/15 05:55:35;;;;;;;15.15;5.10;;;;;;;;;;5032068;28;20212;-62
2022/05/15 05:58:00;;;;;;;17.25;4.97;;;;;;;;;;5031353;28;20222;-62
2022/05/15 06:00:26;;;;;;;18.98;5.53;;;;;;;;;;5031472;28;20702;-63
2022/05/15 06:02:52;;;;;;;15.60;4.57;;;;;;;;;;5031941;28;20216;-62
2022/05/15 06:05:17;;;;;;;18.25;5.60;;;;;;;;;;5030461;28;20235;-63
2022/05/15 06:07:42;;;;;;;19.73;5.75;;;;;;;;;;5031652;28;20227;-63
2022/05/15 06:10:08;;;;;;;17.67;5.22;;;;;;;;;;5031084;28;20706;-63
2022/05/15 06:12:33;;;;;;;17.70;5.50;;;;;;;;;;5031040;28;20215;-62
2022/05/15 06:14:58;;;;;;;17.75;5.38;;;;;;;;;;5036305;28;20206;-63
2022/05/15 06:17:25;;;;;;;17.42;6.18;;;;;;;;;;5016142;28;20203;-62
2022/05/15 06:19:50;;;;;;;20.70;5.28;;;;;;;;;;5030678;28;20687;-62
2022/05/15 06:22:15;;;;;;;19.63;5.45;;;;;;;;;;5030776;28;20208;-62
2022/05/15 06:24:40;;;;;;;18.48;5.75;;;;;;;;;;5031558;28;20204;-63
2022/05/15 06:27:06;;;;;;;21.38;5.93;;;;;;;;;;5030261;28;20619;-62
2022/05/15 06:29:31;;;;;;;21.83;5.90;;;;;;;;;;5031458;28;20226;-63
2022/05/15 06:31:57;;;;;;;18.30;6.03;;;;;;;;;;5032437;28;20686;-62
2022/05/15 06:34:22;;;;;;;18.50;5.78;;;;;;;;;;5049849;28;20217;-62
2022/05/15 06:36:47;;;;;;;15.73;5.70;;;;;;;;;;5051317;28;20249;-62
2022/05/15 06:39:13;;;;;;;24.05;6.85;;;;;;;;;;5050395;28;20211;-63
2022/05/15 06:41:38;;;;;;;20.13;6.70;;;;;;;;;;5050583;28;20203;-63
2022/05/15 06:44:04;;;;;;;17.95;5.97;;;;;;;;;;5033106;28;20230;-62
2022/05/15 06:46:29;;;;;;;17.10;5.97;;;;;;;;;;5033822;28;20207;-62
2022/05/15 06:48:54;;;;;;;21.98;6.97;;;;;;;;;;5033068;28;20212;-62
2022/05/15 06:51:19;;;;;;;18.25;6.68;;;;;;;;;;5030610;28;20224;-62
2022/05/15 06:53:45;;;;;;;21.50;7.15;;;;;;;;;;5030876;28;20208;-63
2022/05/15 06:58:55;;;;;;;19.02;6.53;;;;;;;;;;5031274;28;20689;-62
2022/05/15 07:01:20;;;;;;;23.63;7.18;;;;;;;;;;5030077;28;20235;-62
2022/05/15 07:03:45;;;;;;;23.35;6.70;;;;;;;;;;5030808;28;20226;-62
2022/05/15 07:06:10;;;;;;;20.15;6.28;;;;;;;;;;5030491;28;20285;-62
2022/05/15 07:08:36;;;;;;;20.70;6.72;;;;;;;;;;5030033;28;20302;-62
2022/05/15 07:11:01;;;;;;;23.17;6.32;;;;;;;;;;5030590;28;20239;-62
2022/05/15 07:13:27;;;;;;;18.75;6.43;;;;;;;;;;5031136;28;20672;-62
2022/05/15 07:15:52;;;;;;;17.48;6.20;;;;;;;;;;5037472;28;20220;-63
2022/05/15 07:18:17;;;;;;;19.17;5.95;;;;;;;;;;5030793;28;20218;-63
2022/05/15 07:20:42;;;;;;;21.15;6.07;;;;;;;;;;5030616;28;20422;-63
2022/05/15 07:23:08;;;;;;;18.05;6.28;;;;;;;;;;5029516;28;20223;-63
2022/05/15 07:25:33;;;;;;;24.48;6.97;;;;;;;;;;5030564;28;20200;-63
2022/05/15 07:27:58;;;;;;;23.05;6.68;;;;;;;;;;5031111;28;20232;-63
2022/05/15 07:30:23;;;;;;;20.42;5.93;;;;;;;;;;5029640;28;20601;-63
2022/05/15 07:32:49;;;;;;;19.38;6.32;;;;;;;;;;5038950;28;20751;-63
2022/05/15 07:35:14;;;;;;;18.90;5.82;;;;;;;;;;5053615;28;20225;-62
2022/05/15 07:37:39;;;;;;;19.95;6.63;;;;;;;;;;5053782;28;20209;-63
2022/05/15 07:40:05;;;;;;;19.20;6.03;;;;;;;;;;5053674;28;20246;-62
2022/05/15 07:42:31;;;;;;;18.23;6.60;;;;;;;;;;5054520;28;20203;-63
2022/05/15 07:44:59;;;;;;;17.10;5.90;;;;;;;;;;5053709;28;20261;-62
2022/05/15 07:47:24;;;;;;;21.83;6.25;;;;;;;;;;5049406;28;20236;-63
2022/05/15 07:49:50;;;;;;;18.38;5.72;;;;;;;;;;5033976;28;20255;-62
2022/05/15 07:52:15;;;;;;;20.48;6.20;;;;;;;;;;5033184;28;20208;-62
2022/05/15 07:54:40;;;;;;;14.68;5.80;;;;;;;;;;5034114;28;20214;-63
2022/05/15 07:57:06;;;;;;;20.20;6.97;;;;;;;;;;5033162;28;20262;-62
2022/05/15 07:59:31;;;;;;;21.05;6.68;;;;;;;;;;5034306;28;20242;-63
2022/05/15 08:01:58;;;;;;;17.83;6.22;;;;;;;;;;5034435;28;20208;-63
2022/05/15 08:04:23;;;;;;;21.98;6.32;;;;;;;;;;5032859;28;20557;-63
2022/05/15 08:09:33;;;;;;;22.05;6.03;;;;;;;;;;5033538;28;20627;-63
2022/05/15 08:11:59;;;;;;;18.17;6.65;;;;;;;;;;5033617;28;20663;-63
2022/05/15 08:14:24;;;;;;;16.25;6.13;;;;;;;;;;5033698;28;20228;-62
2022/05/15 08:16:49;;;;;;;19.92;6.57;;;;;;;;;;5041047;28;20274;-63
2022/05/15 08:24:42;;;;;;;18.83;6.80;;;;;;;;;;5033595;28;20582;-63
2022/05/15 08:27:09;;;;;;;21.67;6.70;;;;;;;;;;5032705;28;20682;-62
2022/05/15 08:29:34;;;;;;;19.02;7.03;;;;;;;;;;5033483;28;20226;-62
2022/05/15 08:32:00;;;;;;;15.60;5.63;;;;;;;;;;5033455;28;20215;-63
2022/05/15 08:34:25;;;;;;;17.35;6.38;;;;;;;;;;5032234;28;20210;-63
2022/05/15 08:36:51;;;;;;;15.15;5.60;;;;;;;;;;5033664;28;20204;-62
2022/05/15 08:39:16;;;;;;;16.77;5.53;;;;;;;;;;5032662;28;20291;-62
2022/05/15 08:41:46;;;;;;;16.50;6.07;;;;;;;;;;5033602;28;20302;-63
2022/05/15 08:44:18;;;;;;;19.35;6.43;;;;;;;;;;5032547;28;20675;-63
2022/05/15 08:46:47;;;;;;;17.77;6.20;;;;;;;;;;5032664;28;20505;-63
2022/05/15 08:49:18;;;;;;;18.33;5.82;;;;;;;;;;5021299;28;20589;-63
2022/05/15 08:51:48;;;;;;;20.90;5.72;;;;;;;;;;5012302;28;20212;-63
2022/05/15 08:54:14;;;;;;;16.92;5.57;;;;;;;;;;5011374;28;20296;-63
2022/05/15 08:56:43;;;;;;;15.30;6.00;;;;;;;;;;5013381;28;20304;-63
2022/05/15 08:59:11;;;;;;;17.13;6.60;;;;;;;;;;5011342;28;20208;-63
2022/05/15 09:01:37;;;;;;;16.92;6.20;;;;;;;;;;5011092;28;20726;-63
2022/05/15 09:04:02;;;;;;;13.65;5.40;;;;;;;;;;5012903;28;20224;-62
2022/05/15 09:06:27;;;;;;;15.27;5.55;;;;;;;;;;5011825;28;20224;-62
2022/05/15 09:08:59;;;;;;;17.42;5.55;;;;;;;;;;5012675;28;20212;-63
2022/05/15 09:11:28;;;;;;;17.52;6.07;;;;;;;;;;5012509;28;20829;-63
2022/05/15 09:13:55;;;;;;;19.38;6.32;;;;;;;;;;5013045;28;20215;-63
2022/05/15 09:16:22;;;;;;;14.73;5.60;;;;;;;;;;5017368;28;20219;-63
2022/05/15 09:18:47;;;;;;;17.30;5.70;;;;;;;;;;5013359;28;20299;-62
2022/05/15 09:21:13;;;;;;;15.77;5.90;;;;;;;;;;5012865;28;20304;-63
2022/05/15 09:23:40;;;;;;;15.40;5.90;;;;;;;;;;5012100;28;20254;-63
2022/05/15 09:26:06;;;;;;;19.55;6.32;;;;;;;;;;5012178;28;20215;-63
2022/05/15 09:28:34;;;;;;;16.70;5.95;;;;;;;;;;5012108;28;20212;-62
2022/05/15 09:30:59;;;;;;;15.15;5.68;;;;;;;;;;5012667;28;20220;-63
2022/05/15 09:33:28;;;;;;;16.02;5.20;;;;;;;;;;5002188;28;20274;-62
2022/05/15 09:36:12;;;;;;;18.25;5.30;;;;;;;;;;5001352;28;20831;-63
2022/05/15 09:38:38;;;;;;;18.80;4.80;;;;;;;;;;5018203;28;20679;-63
2022/05/15 09:43:54;;;;;;;15.05;5.30;;;;;;;;;;5026171;28;20277;-62
2022/05/15 09:46:20;;;;;;;12.93;4.75;;;;;;;;;;5026347;28;20290;-63
2022/05/15 09:49:06;;;;;;;14.43;4.90;;;;;;;;;;5041857;28;20207;-63
2022/05/15 09:51:36;;;;;;;17.02;5.50;;;;;;;;;;5044338;28;20678;-63
2022/05/15 09:54:01;;;;;;;18.30;5.15;;;;;;;;;;5043666;28;20693;-62
2022/05/15 09:56:29;;;;;;;13.05;4.45;;;;;;;;;;5039099;28;20213;-62
2022/05/15 09:58:56;;;;;;;16.92;5.13;;;;;;;;;;5037530;28;20290;-63
2022/05/15 10:01:23;;;;;;;17.08;5.45;;;;;;;;;;5037465;28;20557;-63
2022/05/15 10:03:57;;;;;;;14.57;4.55;;;;;;;;;;5042316;28;20257;-63
2022/05/15 10:06:22;;;;;;;17.27;4.97;;;;;;;;;;5044727;28;20260;-62
2022/05/15 10:09:05;;;;;;;12.88;4.53;;;;;;;;;;5045524;28;20215;-63
2022/05/15 10:11:31;;;;;;;13.32;3.40;;;;;;;;;;5056838;28;20707;-62
2022/05/15 10:13:56;;;;;;;13.20;3.42;;;;;;;;;;5047541;28;20222;-63
2022/05/15 10:16:23;;;;;;;12.50;3.60;;;;;;;;;;5048743;28;20685;-63
2022/05/15 10:19:05;;;;;;;16.92;4.13;;;;;;;;;;5040707;28;20670;-63
2022/05/15 10:21:34;;;;;;;10.90;3.15;;;;;;;;;;5019663;28;20425;-63
2022/05/15 10:24:04;;;;;;;14.05;3.45;;;;;;;;;;5019463;28;20253;-63
2022/05/15 10:26:32;;;;;;;11.48;2.95;;;;;;;;;;5024011;28;20653;-63
2022/05/15 10:29:00;;;;;;;13.60;3.33;;;;;;;;;;5045566;28;20681;-62
2022/05/15 10:31:43;;;;;;;15.63;3.63;;;;;;;;;;5045726;28;20302;-63
2022/05/15 10:34:10;;;;;;;13.77;3.80;;;;;;;;;;5048098;28;20226;-62
2022/05/15 10:36:46;;;;;;;14.38;3.58;;;;;;;;;;5051442;28;20684;-63
2022/05/15 10:39:21;;;;;;;11.15;3.38;;;;;;;;;;5032114;28;20625;-63
2022/05/15 10:41:50;;;;;;;13.88;4.10;;;;;;;;;;5033055;28;20206;-62
2022/05/15 10:44:20;;;;;;;11.05;3.45;;;;;;;;;;5050818;28;20198;-63
2022/05/15 10:46:57;;;;;;;11.82;3.28;;;;;;;;;;5050636;28;20248;-63
2022/05/15 10:49:27;;;;;;;11.95;3.75;;;;;;;;;;5013008;28;20223;-62
2022/05/15 10:52:07;;;;;;;10.95;3.35;;;;;;;;;;5013160;28;20714;-62
2022/05/15 10:57:32;;;;;;;17.98;3.67;;;;;;;;;;5030919;28;20638;-63
2022/05/15 10:59:58;;;;;;;13.40;3.70;;;;;;;;;;5030335;28;20232;-63
2022/05/15 11:02:35;;;;;;;12.20;3.60;;;;;;;;;;5030385;28;20246;-63
2022/05/15 11:05:06;;;;;;;12.15;3.42;;;;;;;;;;5013346;28;20207;-62
2022/05/15 11:07:39;;;;;;;14.07;3.53;;;;;;;;;;5036293;28;20211;-62
2022/05/15 11:10:04;;;;;;;16.75;4.03;;;;;;;;;;5036506;28;20233;-62
2022/05/15 11:12:29;;;;;;;12.27;3.25;;;;;;;;;;5054411;28;20658;-63
2022/05/15 11:15:15;;;;;;;14.95;3.47;;;;;;;;;;5049924;28;20211;-63
2022/05/15 11:17:48;;;;;;;10.27;3.20;;;;;;;;;;5034557;28;20215;-63
2022/05/15 11:20:15;;;;;;;8.15;2.50;;;;;;;;;;5033664;28;20208;-63
2022/05/15 11:22:43;;;;;;;11.57;2.92;;;;;;;;;;5034492;28;20204;-63
2022/05/15 11:25:18;;;;;;;9.15;3.03;;;;;;;;;;5034241;28;20235;-63
2022/05/15 11:27:43;;;;;;;13.38;3.35;;;;;;;;;;5034607;28;20218;-63
2022/05/15 11:30:10;;;;;;;11.10;3.03;;;;;;;;;;5033530;28;20224;-63
2022/05/15 11:32:55;;;;;;;9.23;2.83;;;;;;;;;;5024484;28;20212;-62
2022/05/15 11:35:21;;;;;;;10.90;2.90;;;;;;;;;;5033446;28;20219;-63
2022/05/15 11:37:54;;;;;;;10.65;2.38;;;;;;;;;;5023568;28;20209;-62
2022/05/15 11:40:40;;;;;;;10.45;2.33;;;;;;;;;;5015085;28;20212;-63
2022/05/15 11:43:24;;;;;;;9.65;2.35;;;;;;;;;;5013808;28;20300;-63
2022/05/15 11:45:50;;;;;;;11.02;2.63;;;;;;;;;;5033655;28;20246;-62
2022/05/15 11:48:22;;;;;;;9.63;2.80;;;;;;;;;;5022343;28;20201;-63
2022/05/15 11:50:52;;;;;;;7.85;2.50;;;;;;;;;;5013962;28;20220;-62
2022/05/15 11:53:23;;;;;;;11.65;2.45;;;;;;;;;;5013243;28;20216;-62
2022/05/15 11:55:49;;;;;;;12.07;2.67;;;;;;;;;;5014733;28;20251;-62
2022/05/15 11:58:16;;;;;;;7.38;2.00;;;;;;;;;;5012262;28;20209;-64
2022/05/15 12:00:42;;;;;;;9.02;2.10;;;;;;;;;;5028065;28;20267;-63
2022/05/15 12:03:27;;;;;;;11.10;2.65;;;;;;;;;;5005383;28;20723;-62
2022/05/15 12:06:01;;;;;;;11.45;2.10;;;;;;;;;;5016581;28;20679;-64
2022/05/15 12:08:28;;;;;;;10.50;2.95;;;;;;;;;;5033775;28;20204;-63
2022/05/15 12:10:55;;;;;;;10.55;2.30;;;;;;;;;;5032979;28;20281;-63
2022/05/15 12:13:34;;;;;;;8.32;2.17;;;;;;;;;;5033122;28;20559;-62
2022/05/15 12:16:14;;;;;;;11.65;2.30;;;;;;;;;;5033966;28;20211;-63
2022/05/15 12:18:39;;;;;;;10.07;2.25;;;;;;;;;;5032942;28;20693;-63
2022/05/15 12:21:05;;;;;;;8.88;2.20;;;;;;;;;;5033032;28;20208;-63
2022/05/15 12:23:32;;;;;;;9.45;2.60;;;;;;;;;;5033719;28;20247;-63
2022/05/15 12:26:05;;;;;;;8.48;2.47;;;;;;;;;;5015045;28;20678;-62
2022/05/15 12:28:51;;;;;;;9.90;2.55;;;;;;;;;;5007787;28;20214;-62
2022/05/15 12:31:18;;;;;;;9.90;2.67;;;;;;;;;;5017974;28;20722;-62
2022/05/15 12:33:43;;;;;;;9.75;2.30;;;;;;;;;;5030516;28;20238;-62
2022/05/15 12:36:10;;;;;;;10.90;2.50;;;;;;;;;;5035259;28;20242;-63
2022/05/15 12:38:35;;;;;;;11.88;2.60;;;;;;;;;;5052552;28;20216;-63
2022/05/15 12:41:02;;;;;;;7.68;2.45;;;;;;;;;;5052704;28;20577;-63
2022/05/15 12:43:28;;;;;;;9.40;2.20;;;;;;;;;;5035370;28;20226;-62
2022/05/15 12:45:53;;;;;;;13.45;2.80;;;;;;;;;;5032999;28;20208;-63
2022/05/15 12:48:19;;;;;;;10.30;2.50;;;;;;;;;;5045010;28;20587;-62
2022/05/15 12:50:47;;;;;;;10.60;2.90;;;;;;;;;;5053180;28;20219;-63
2022/05/15 12:53:17;;;;;;;10.18;2.40;;;;;;;;;;5051508;28;20215;-63
2022/05/15 12:55:42;;;;;;;10.43;2.38;;;;;;;;;;5053050;28;20210;-62
2022/05/15 12:58:08;;;;;;;8.90;2.55;;;;;;;;;;5052491;28;20215;-63
2022/05/15 13:00:34;;;;;;;7.80;2.58;;;;;;;;;;5052125;28;20219;-63
2022/05/15 13:03:01;;;;;;;7.70;2.20;;;;;;;;;;5035189;28;20223;-62
2022/05/15 13:05:29;;;;;;;9.52;2.17;;;;;;;;;;5052561;28;20574;-62
2022/05/15 13:07:56;;;;;;;9.07;2.00;;;;;;;;;;5051987;28;20230;-62
2022/05/15 13:10:21;;;;;;;10.73;2.40;;;;;;;;;;5052097;28;20291;-63
2022/05/15 13:12:48;;;;;;;9.48;2.25;;;;;;;;;;5052843;28;20680;-62
2022/05/15 13:15:13;;;;;;;7.47;2.40;;;;;;;;;;5051667;28;20214;-62
2022/05/15 13:17:39;;;;;;;12.10;2.70;;;;;;;;;;5034939;28;20211;-62
2022/05/15 13:20:08;;;;;;;7.53;1.83;;;;;;;;;;5052216;28;20261;-62
2022/05/15 13:22:33;;;;;;;10.80;2.15;;;;;;;;;;5034150;28;20272;-62
2022/05/15 13:25:00;;;;;;;9.50;2.53;;;;;;;;;;5034493;28;20681;-62
2022/05/15 13:27:26;;;;;;;12.60;2.15;;;;;;;;;;5052470;28;20234;-63
2022/05/15 13:29:51;;;;;;;7.75;2.10;;;;;;;;;;5033757;28;20713;-63
2022/05/15 13:32:17;;;;;;;7.97;1.98;;;;;;;;;;5029848;28;20204;-62
2022/05/15 13:34:42;;;;;;;7.40;2.20;;;;;;;;;;5031639;28;20235;-63
2022/05/15 13:37:30;;;;;;;10.65;2.72;;;;;;;;;;5030746;28;20231;-63
2022/05/15 13:45:30;;;;;;;7.40;2.15;;;;;;;;;;5015230;28;20220;-63
2022/05/15 13:48:00;;;;;;;9.27;2.33;;;;;;;;;;5021048;28;20216;-62
2022/05/15 13:50:34;;;;;;;7.35;1.90;;;;;;;;;;5051270;28;20269;-62
2022/05/15 13:53:17;;;;;;;11.02;2.53;;;;;;;;;;5052156;28;20283;-63
2022/05/15 13:55:42;;;;;;;11.05;2.60;;;;;;;;;;5051538;28;20249;-63
2022/05/15 13:58:07;;;;;;;8.55;2.30;;;;;;;;;;5050307;28;20603;-63
2022/05/15 14:00:33;;;;;;;10.18;2.20;;;;;;;;;;5051566;28;20226;-62
2022/05/15 14:03:05;;;;;;;10.90;2.42;;;;;;;;;;5051226;28;20203;-62
2022/05/15 14:05:31;;;;;;;8.73;2.75;;;;;;;;;;5051840;28;20248;-63
2022/05/15 14:08:07;;;;;;;7.85;1.95;;;;;;;;;;5051834;28;20282;-63
2022/05/15 14:10:33;;;;;;;8.73;2.30;;;;;;;;;;5050584;28;20226;-63
2022/05/15 14:13:00;;;;;;;8.70;2.20;;;;;;;;;;5051355;28;20211;-63
2022/05/15 14:15:34;;;;;;;6.15;1.90;;;;;;;;;;5031198;28;20246;-62
2022/05/15 14:18:01;;;;;;;9.27;2.00;;;;;;;;;;5031130;28;20291;-62
2022/05/15 14:20:28;;;;;;;7.95;2.20;;;;;;;;;;5029923;28;20612;-62
2022/05/15 14:22:53;;;;;;;7.50;2.10;;;;;;;;;;5031726;28;20235;-62
2022/05/15 14:25:18;;;;;;;11.68;2.15;;;;;;;;;;5030376;28;20301;-62
2022/05/15 14:27:44;;;;;;;5.22;1.77;;;;;;;;;;5031680;28;20211;-63
2022/05/15 14:30:09;;;;;;;12.35;2.70;;;;;;;;;;5030865;28;20223;-63
2022/05/15 14:32:34;;;;;;;9.88;2.65;;;;;;;;;;5025140;28;20298;-62
2022/05/15 14:35:00;;;;;;;11.00;3.20;;;;;;;;;;5011905;28;20223;-62
2022/05/15 14:37:26;;;;;;;9.77;2.60;;;;;;;;;;5011269;28;20298;-63
2022/05/15 14:39:51;;;;;;;11.38;2.58;;;;;;;;;;5010823;28;20223;-63
2022/05/15 14:42:16;;;;;;;7.95;2.10;;;;;;;;;;5011043;28;20212;-63
2022/05/15 14:44:42;;;;;;;9.05;2.30;;;;;;;;;;5011428;28;20219;-62
2022/05/15 14:47:08;;;;;;;8.90;2.75;;;;;;;;;;5012992;28;20303;-62
2022/05/15 14:49:33;;;;;;;7.57;2.00;;;;;;;;;;5031313;28;20328;-62
2022/05/15 14:51:58;;;;;;;7.82;2.05;;;;;;;;;;5031193;28;20249;-62
2022/05/15 14:54:24;;;;;;;10.52;2.42;;;;;;;;;;5030047;28;20246;-63